Time;durP1;ratioP1;P1;durP2;ratioP2;P2;SDS_P1;SDS_P2;PMS_P1;PMS_P2;Temp;Humidity;BMP_temperature;BMP_pressure;BME280_temperature;BME280_humidity;BME280_pressure;Samples;Min_cycle;Max_cycle;Signal;HPM_P1;HPM_P2
2023/11/08 00:00:49;;;;;;;;;3.67;3.00;;;;;14.79;100.00;101022.44;2083620;28;46665;-57
2023/11/08 00:01:50;;;;;;;;;3.25;2.50;;;;;14.80;100.00;101017.97;2070740;27;46473;-57
2023/11/08 00:02:50;;;;;;;;;5.67;4.00;;;;;14.78;100.00;101020.72;2066977;28;46331;-58
2023/11/08 00:03:51;;;;;;;;;3.33;3.33;;;;;14.78;100.00;101025.19;2076743;28;46456;-61
2023/11/08 00:04:51;;;;;;;;;4.33;4.00;;;;;14.78;100.00;101019.84;2099734;28;46380;-57
2023/11/08 00:05:51;;;;;;;;;3.00;3.00;;;;;14.78;100.00;101020.72;2089217;28;46180;-60
2023/11/08 00:06:52;;;;;;;;;4.67;3.00;;;;;14.78;100.00;101017.16;2086418;28;46502;-58
2023/11/08 00:07:53;;;;;;;;;3.00;2.00;;;;;14.80;100.00;101020.66;2068480;28;46193;-60
2023/11/08 00:08:53;;;;;;;;;4.00;4.00;;;;;14.81;100.00;101020.59;2079011;28;46467;-56
2023/11/08 00:09:54;;;;;;;;;7.33;5.33;;;;;14.81;100.00;101017.06;2093502;28;46435;-54
2023/11/08 00:10:54;;;;;;;;;4.00;4.00;;;;;14.81;100.00;101025.94;2093714;28;46731;-53
2023/11/08 00:11:55;;;;;;;;;5.00;5.00;;;;;14.81;100.00;101022.41;2081636;28;46970;-58
2023/11/08 00:12:58;;;;;;;;;4.67;3.00;;;;;14.80;100.00;101021.53;2099347;28;46471;-56
2023/11/08 00:13:58;;;;;;;;;5.50;4.50;;;;;14.81;100.00;101017.06;2086299;28;46178;-55
2023/11/08 00:14:59;;;;;;;;;3.33;3.00;;;;;14.81;100.00;101017.94;2066443;28;47048;-54
2023/11/08 00:16:00;;;;;;;;;5.00;4.00;;;;;14.81;100.00;101017.06;2059269;28;45790;-57
2023/11/08 00:17:01;;;;;;;;;7.00;4.00;;;;;14.81;100.00;101015.25;2058736;28;46365;-56
2023/11/08 00:18:01;;;;;;;;;4.75;3.75;;;;;14.80;100.00;101016.19;2082639;28;46373;-58
2023/11/08 00:19:02;;;;;;;;;3.33;3.33;;;;;14.80;100.00;101018.84;2066248;28;46264;-58
2023/11/08 00:20:03;;;;;;;;;3.33;3.33;;;;;14.80;100.00;101012.63;2062052;28;46345;-56
2023/11/08 00:21:05;;;;;;;;;4.00;2.75;;;;;14.76;100.00;101011.00;2055815;28;46821;-58
2023/11/08 00:22:06;;;;;;;;;3.75;3.00;;;;;14.79;100.00;101011.75;2061654;28;46778;-61
2023/11/08 00:23:06;;;;;;;;;4.00;4.00;;;;;14.76;100.00;101006.53;2059440;28;46238;-57
2023/11/08 00:24:07;;;;;;;;;3.25;3.25;;;;;14.76;100.00;101009.22;2060847;28;46945;-57
2023/11/08 00:25:08;;;;;;;;;2.50;2.50;;;;;14.77;100.00;101002.06;2062104;28;46829;-60
2023/11/08 00:26:08;;;;;;;;;5.33;5.33;;;;;14.76;100.00;101008.34;2053348;28;46538;-54
2023/11/08 00:27:08;;;;;;;;;2.67;2.67;;;;;14.76;100.00;101003.88;2054011;28;46876;-56
2023/11/08 00:28:09;;;;;;;;;5.00;4.75;;;;;14.75;100.00;101006.59;2061901;28;46294;-52
2023/11/08 00:29:09;;;;;;;;;4.00;4.00;;;;;14.74;100.00;101011.06;2061904;28;46715;-54
2023/11/08 00:30:10;;;;;;;;;5.00;4.00;;;;;14.75;100.00;101003.91;2062062;28;46726;-59
2023/11/08 00:31:11;;;;;;;;;4.00;4.00;;;;;14.72;100.00;101003.06;2066295;28;46427;-59
2023/11/08 00:32:11;;;;;;;;;3.00;3.00;;;;;14.71;100.00;101008.47;2061081;28;46386;-54
2023/11/08 00:33:11;;;;;;;;;4.00;4.00;;;;;14.70;100.00;100998.72;2057216;28;46664;-56
2023/11/08 00:34:15;;;;;;;;;7.67;5.00;;;;;14.68;100.00;100998.78;2063149;28;46688;-60
2023/11/08 00:35:16;;;;;;;;;6.75;6.00;;;;;14.68;100.00;100997.91;2085606;28;46652;-59
2023/11/08 00:36:17;;;;;;;;;4.80;2.20;;;;;14.65;100.00;101001.56;2071209;28;46874;-61
2023/11/08 00:37:20;;;;;;;;;5.00;2.00;;;;;14.64;100.00;100996.28;2062217;28;46450;-58
2023/11/08 00:38:20;;;;;;;;;6.20;4.60;;;;;14.65;100.00;100998.00;2061713;28;46477;-59
2023/11/08 00:39:21;;;;;;;;;4.25;4.25;;;;;14.64;100.00;100990.94;2058970;28;46417;-58
2023/11/08 00:40:21;;;;;;;;;5.00;5.00;;;;;14.63;100.00;100989.19;2056538;28;45914;-56
2023/11/08 00:41:22;;;;;;;;;3.33;3.33;;;;;14.62;100.00;100999.00;2054027;28;46242;-59
2023/11/08 00:42:22;;;;;;;;;5.00;5.00;;;;;14.61;100.00;100996.34;2053942;28;46382;-59
2023/11/08 00:43:22;;;;;;;;;5.00;3.75;;;;;14.61;100.00;100999.94;2061632;28;46565;-60
2023/11/08 00:44:22;;;;;;;;;4.25;4.00;;;;;14.61;100.00;100994.59;2062224;28;46545;-60
2023/11/08 00:45:23;;;;;;;;;4.75;4.75;;;;;14.61;100.00;100997.25;2062002;28;46488;-58
2023/11/08 00:46:23;;;;;;;;;4.50;4.00;;;;;14.62;100.00;100998.13;2068079;28;46211;-52
2023/11/08 00:47:24;;;;;;;;;4.33;4.33;;;;;14.60;100.00;100991.94;2077163;28;46757;-59
2023/11/08 00:48:24;;;;;;;;;4.00;4.00;;;;;14.61;100.00;101001.69;2061728;28;46833;-59
2023/11/08 00:49:25;;;;;;;;;4.25;4.00;;;;;14.56;100.00;101000.97;2061087;28;46435;-60
2023/11/08 00:50:27;;;;;;;;;4.00;4.00;;;;;14.58;100.00;100999.13;2059183;28;46150;-58
2023/11/08 00:51:27;;;;;;;;;3.60;3.40;;;;;14.58;100.00;100994.66;2084930;28;46922;-59
2023/11/08 00:52:27;;;;;;;;;4.00;4.00;;;;;14.58;100.00;100999.13;2054940;28;46486;-56
2023/11/08 00:53:28;;;;;;;;;5.00;5.00;;;;;14.58;100.00;101000.00;2081248;28;46737;-57
2023/11/08 00:54:29;;;;;;;;;5.25;5.25;;;;;14.59;100.00;101000.88;2053989;28;46352;-59
2023/11/08 00:55:29;;;;;;;;;4.00;4.00;;;;;14.57;100.00;100998.25;2065454;28;46340;-58
2023/11/08 00:56:30;;;;;;;;;5.00;4.00;;;;;14.56;100.00;100996.50;2086595;28;46808;-57
2023/11/08 00:57:31;;;;;;;;;5.00;5.00;;;;;14.57;100.00;101000.06;2073621;28;46554;-58
2023/11/08 00:58:31;;;;;;;;;6.00;6.00;;;;;14.54;100.00;100995.69;2103294;28;46839;-57
2023/11/08 00:59:31;;;;;;;;;5.00;4.00;;;;;14.54;100.00;101002.84;2103255;27;46271;-58
2023/11/08 01:00:32;;;;;;;;;6.00;6.00;;;;;14.54;100.00;100998.38;2105691;28;46299;-56
2023/11/08 01:01:35;;;;;;;;;4.25;4.25;;;;;14.52;100.00;100999.34;2091565;28;45574;-55
2023/11/08 01:02:36;;;;;;;;;5.20;4.80;;;;;14.51;100.00;101001.16;2070030;28;45914;-60
2023/11/08 01:03:36;;;;;;;;;4.25;4.25;;;;;14.54;100.00;101002.84;2105329;28;46644;-58
2023/11/08 01:04:36;;;;;;;;;5.75;5.75;;;;;14.52;100.00;101004.69;2103196;28;46560;-59
2023/11/08 01:05:37;;;;;;;;;6.50;6.00;;;;;14.52;100.00;101007.38;2105148;28;46985;-53
2023/11/08 01:06:38;;;;;;;;;5.00;5.00;;;;;14.49;100.00;101016.34;2068460;28;46457;-54
2023/11/08 01:07:38;;;;;;;;;6.60;5.60;;;;;14.46;100.00;101016.44;2073879;28;46747;-57
2023/11/08 01:08:39;;;;;;;;;4.75;4.75;;;;;14.49;100.00;101019.03;2076833;28;46882;-60
2023/11/08 01:09:39;;;;;;;;;3.00;3.00;;;;;14.50;100.00;101019.91;2092699;28;46413;-57
2023/11/08 01:10:40;;;;;;;;;4.75;4.75;;;;;14.52;100.00;101021.59;2103042;28;46359;-58
2023/11/08 01:11:42;;;;;;;;;6.60;6.60;;;;;14.53;100.00;101020.66;2104695;28;46853;-55
2023/11/08 01:12:42;;;;;;;;;9.20;9.20;;;;;14.53;100.00;101026.00;2084746;28;46363;-56
2023/11/08 01:13:43;;;;;;;;;11.50;11.50;;;;;14.53;100.00;101022.47;2058955;28;46256;-56
2023/11/08 01:14:43;;;;;;;;;16.75;15.75;;;;;14.51;100.00;101026.97;2098232;28;46809;-57
2023/11/08 01:15:44;;;;;;;;;18.75;15.75;;;;;14.51;100.00;101024.31;2099033;28;46546;-59
2023/11/08 01:16:45;;;;;;;;;16.50;13.75;;;;;14.51;100.00;101029.66;2105055;27;46813;-59
2023/11/08 01:17:45;;;;;;;;;10.00;9.00;;;;;14.46;100.00;101026.25;2103725;28;46629;-59
2023/11/08 01:18:46;;;;;;;;;14.00;13.00;;;;;14.43;100.00;101028.06;2103575;28;46649;-60
2023/11/08 01:19:46;;;;;;;;;18.00;15.75;;;;;14.44;100.00;101028.97;2104979;28;46797;-59
2023/11/08 01:20:47;;;;;;;;;8.25;8.25;;;;;14.48;100.00;101030.59;2103629;28;46473;-58
2023/11/08 01:21:49;;;;;;;;;8.00;8.00;;;;;14.50;100.00;101030.59;2079771;27;45716;-59
2023/11/08 01:22:50;;;;;;;;;6.20;5.80;;;;;14.51;100.00;101026.97;2064322;28;46556;-61
2023/11/08 01:23:51;;;;;;;;;5.75;5.75;;;;;14.52;100.00;101026.94;2079322;28;46853;-58
2023/11/08 01:24:51;;;;;;;;;3.80;3.80;;;;;14.50;100.00;101034.13;2104375;28;46478;-59
2023/11/08 01:25:52;;;;;;;;;4.00;4.00;;;;;14.42;100.00;101033.47;2081980;28;46315;-58
2023/11/08 01:26:52;;;;;;;;;3.00;3.00;;;;;14.40;100.00;101027.28;2072710;28;46316;-59
2023/11/08 01:27:53;;;;;;;;;4.67;4.67;;;;;14.40;100.00;101029.97;2065403;28;46210;-57
2023/11/08 01:28:53;;;;;;;;;5.75;5.50;;;;;14.39;100.00;101033.56;2068730;28;46262;-60
2023/11/08 01:29:53;;;;;;;;;4.75;4.75;;;;;14.37;100.00;101030.06;2070653;28;46620;-59
2023/11/08 01:30:54;;;;;;;;;7.00;6.00;;;;;14.36;100.00;101037.22;2072704;28;45333;-56
2023/11/08 01:31:54;;;;;;;;;2.75;2.75;;;;;14.36;100.00;101036.34;2072702;28;46261;-59
2023/11/08 01:32:55;;;;;;;;;4.67;4.67;;;;;14.35;100.00;101040.78;2071151;28;45431;-59
2023/11/08 01:33:57;;;;;;;;;5.80;5.60;;;;;14.35;100.00;101035.44;2072815;28;46354;-58
2023/11/08 01:34:59;;;;;;;;;6.20;5.40;;;;;14.36;100.00;101036.34;2072218;28;46487;-54
2023/11/08 01:36:00;;;;;;;;;6.00;6.00;;;;;14.35;100.00;101040.78;2069984;28;46637;-59
2023/11/08 01:37:00;;;;;;;;;4.25;4.25;;;;;14.34;100.00;101038.16;2066345;28;46729;-55
2023/11/08 01:38:00;;;;;;;;;5.75;4.25;;;;;14.33;100.00;101041.75;2062591;28;45823;-56
2023/11/08 01:39:01;;;;;;;;;5.25;4.75;;;;;14.34;100.00;101032.81;2080089;28;46682;-57
2023/11/08 01:40:02;;;;;;;;;5.25;5.00;;;;;14.33;100.00;101039.94;2071617;28;46674;-57
2023/11/08 01:41:03;;;;;;;;;5.00;5.00;;;;;14.32;100.00;101040.88;2055302;28;46367;-56
2023/11/08 01:42:03;;;;;;;;;7.00;7.00;;;;;14.31;100.00;101036.47;2087038;28;46622;-55
2023/11/08 01:43:05;;;;;;;;;4.75;4.75;;;;;14.30;100.00;101029.38;2088563;28;45697;-54
2023/11/08 01:44:05;;;;;;;;;9.25;7.00;;;;;14.30;100.00;101031.19;2104698;28;46830;-55
2023/11/08 01:45:06;;;;;;;;;5.00;3.25;;;;;14.28;100.00;101033.91;2102710;28;46253;-56
2023/11/08 01:46:11;;;;;;;;;6.25;4.25;;;;;14.30;100.00;101036.50;2105258;28;46206;-56
2023/11/08 01:47:14;;;;;;;;;8.20;8.00;;;;;14.28;100.00;101033.03;2103388;28;46642;-59
2023/11/08 01:48:15;;;;;;;;;7.20;7.20;;;;;14.27;100.00;101039.28;2093021;28;46767;-54
2023/11/08 01:49:15;;;;;;;;;6.75;6.25;;;;;14.26;100.00;101038.41;2055658;28;46149;-57
2023/11/08 01:50:18;;;;;;;;;5.75;5.00;;;;;14.24;100.00;101032.25;2096717;28;46381;-56
2023/11/08 01:51:20;;;;;;;;;6.20;6.20;;;;;14.22;100.00;101039.41;2102920;28;46443;-59
2023/11/08 01:52:22;;;;;;;;;5.40;4.80;;;;;14.21;100.00;101037.66;2060278;28;46298;-57
2023/11/08 01:53:22;;;;;;;;;6.00;6.00;;;;;14.19;100.00;101036.84;2077907;28;46652;-53
2023/11/08 01:54:27;;;;;;;;;5.75;5.75;;;;;14.19;100.00;101028.84;2063080;28;46317;-56
2023/11/08 01:55:28;;;;;;;;;4.60;4.40;;;;;14.20;100.00;101041.25;2062190;28;46756;-55
2023/11/08 01:56:29;;;;;;;;;5.50;5.50;;;;;14.20;100.00;101035.94;2085103;28;46618;-51
2023/11/08 01:57:31;;;;;;;;;6.00;6.00;;;;;14.21;100.00;101042.13;2061120;28;46294;-57
2023/11/08 01:58:34;;;;;;;;;9.40;8.00;;;;;14.20;100.00;101037.72;2089212;28;46454;-56
2023/11/08 01:59:35;;;;;;;;;5.00;5.00;;;;;14.20;100.00;101040.41;2073679;28;47233;-57
2023/11/08 02:00:37;;;;;;;;;8.25;7.00;;;;;14.19;100.00;101035.97;2069308;28;46757;-58
2023/11/08 02:01:38;;;;;;;;;5.00;5.00;;;;;14.20;100.00;101033.25;2083726;28;46754;-56
2023/11/08 02:02:38;;;;;;;;;6.00;6.00;;;;;14.19;100.00;101038.66;2077107;28;46619;-58
2023/11/08 02:03:41;;;;;;;;;6.75;6.75;;;;;14.21;100.00;101031.47;2088060;28;46127;-58
2023/11/08 02:04:41;;;;;;;;;6.00;6.00;;;;;14.20;100.00;101035.94;2093307;28;46561;-59
2023/11/08 02:05:42;;;;;;;;;6.00;6.00;;;;;14.20;100.00;101027.91;2071550;28;47061;-57
2023/11/08 02:06:42;;;;;;;;;7.00;6.25;;;;;14.20;100.00;101032.38;2065067;28;46684;-58
2023/11/08 02:07:43;;;;;;;;;7.00;6.00;;;;;14.19;100.00;101026.19;2064771;28;46706;-58
2023/11/08 02:08:45;;;;;;;;;6.00;6.00;;;;;14.19;100.00;101028.84;2066509;28;46236;-57
2023/11/08 02:09:46;;;;;;;;;6.00;6.00;;;;;14.17;100.00;101029.81;2059243;28;46788;-59
2023/11/08 02:10:47;;;;;;;;;7.25;7.25;;;;;14.19;100.00;101030.63;2067110;28;46235;-56
2023/11/08 02:11:47;;;;;;;;;6.00;6.00;;;;;14.17;100.00;101035.16;2066275;28;46755;-57
2023/11/08 02:12:49;;;;;;;;;6.00;6.00;;;;;14.18;100.00;101036.91;2067310;28;46508;-56
2023/11/08 02:13:50;;;;;;;;;7.60;7.60;;;;;14.16;100.00;101025.41;2061354;28;46395;-59
2023/11/08 02:15:00;;;;;;;;;7.00;7.00;;;;;14.14;100.00;101033.47;2063332;28;46189;-60
2023/11/08 02:16:02;;;;;;;;;6.80;6.60;;;;;14.12;100.00;101029.97;2064986;28;46487;-55
2023/11/08 02:17:02;;;;;;;;;8.20;7.40;;;;;14.11;100.00;101025.56;2064924;28;46274;-59
2023/11/08 02:18:02;;;;;;;;;9.00;7.50;;;;;14.12;100.00;101027.31;2063536;28;47162;-58
2023/11/08 02:19:05;;;;;;;;;9.25;7.50;;;;;14.11;100.00;101029.09;2070725;28;46961;-57
2023/11/08 02:20:07;;;;;;;;;8.20;5.40;;;;;14.10;100.00;101031.78;2071566;28;46829;-56
2023/11/08 02:21:13;;;;;;;;;6.20;6.20;;;;;14.11;100.00;101023.78;2070623;28;45441;-58
2023/11/08 02:22:14;;;;;;;;;6.00;6.00;;;;;14.08;100.00;101022.97;2070870;28;46787;-57
2023/11/08 02:23:15;;;;;;;;;4.80;4.80;;;;;14.08;100.00;101020.28;2067894;28;46100;-58
2023/11/08 02:24:20;;;;;;;;;6.75;6.00;;;;;14.06;100.00;101016.81;2056762;28;46543;-55
2023/11/08 02:25:21;;;;;;;;;7.40;6.20;;;;;14.04;100.00;101019.53;2094511;28;46421;-59
2023/11/08 02:26:22;;;;;;;;;7.00;6.80;;;;;14.04;100.00;101022.19;2074866;28;46465;-55
2023/11/08 02:27:22;;;;;;;;;5.75;5.75;;;;;14.04;100.00;101024.88;2092641;28;46162;-57
2023/11/08 02:28:23;;;;;;;;;7.00;7.00;;;;;14.04;100.00;101016.84;2070052;28;46508;-59
2023/11/08 02:29:23;;;;;;;;;7.75;5.75;;;;;14.04;100.00;101024.00;2064925;28;46073;-59
2023/11/08 02:30:24;;;;;;;;;5.50;5.50;;;;;14.03;100.00;101023.13;2104731;28;46172;-55
2023/11/08 02:31:24;;;;;;;;;7.75;7.75;;;;;14.04;100.00;101022.19;2084321;28;46484;-59
2023/11/08 02:32:25;;;;;;;;;8.50;6.50;;;;;14.03;100.00;101028.47;2054360;28;46278;-57
2023/11/08 02:33:27;;;;;;;;;5.75;5.75;;;;;14.05;100.00;101025.75;2091598;28;46751;-55
2023/11/08 02:34:28;;;;;;;;;9.00;8.00;;;;;14.03;100.00;101020.44;2070711;28;46296;-55
2023/11/08 02:35:29;;;;;;;;;5.00;5.00;;;;;14.05;100.00;101017.72;2104839;27;46824;-54
2023/11/08 02:36:29;;;;;;;;;6.25;5.50;;;;;14.05;100.00;101020.41;2103003;27;46147;-53
2023/11/08 02:37:30;;;;;;;;;7.00;7.00;;;;;14.04;100.00;101022.19;2102648;28;44949;-57
2023/11/08 02:38:30;;;;;;;;;5.60;5.60;;;;;14.04;100.00;101019.53;2105143;27;45327;-60
2023/11/08 02:39:31;;;;;;;;;6.50;6.00;;;;;14.06;100.00;101017.69;2104453;27;46300;-56
2023/11/08 02:40:31;;;;;;;;;6.75;6.50;;;;;14.06;100.00;101016.81;2105956;28;46281;-57
2023/11/08 02:41:32;;;;;;;;;7.00;7.00;;;;;14.07;100.00;101011.41;2094371;28;46239;-56
2023/11/08 02:42:33;;;;;;;;;5.50;5.50;;;;;14.07;100.00;101016.75;2066759;28;46590;-56
2023/11/08 02:43:33;;;;;;;;;8.00;8.00;;;;;14.07;100.00;101016.75;2063126;28;46349;-56
2023/11/08 02:44:33;;;;;;;;;8.00;8.00;;;;;14.06;100.00;101012.34;2071312;28;46398;-60
2023/11/08 02:45:34;;;;;;;;;8.00;6.75;;;;;14.07;100.00;101014.09;2067842;28;46981;-62
2023/11/08 02:46:35;;;;;;;;;6.25;6.25;;;;;14.07;100.00;100999.88;2072068;28;46427;-57
2023/11/08 02:47:36;;;;;;;;;6.00;6.00;;;;;14.08;100.00;101009.63;2073930;28;46939;-59
2023/11/08 02:48:38;;;;;;;;;8.40;8.40;;;;;14.06;100.00;101003.47;2062725;28;46952;-60
2023/11/08 02:49:38;;;;;;;;;7.00;7.00;;;;;14.03;100.00;101003.56;2065776;28;46576;-59
2023/11/08 02:50:39;;;;;;;;;7.00;7.00;;;;;14.03;100.00;101006.25;2068428;28;46166;-62
2023/11/08 02:51:39;;;;;;;;;7.00;6.25;;;;;14.02;100.00;101007.16;2068128;28;46600;-56
2023/11/08 02:52:40;;;;;;;;;8.00;7.75;;;;;14.01;100.00;101003.63;2069220;28;46255;-57
2023/11/08 02:53:40;;;;;;;;;7.00;7.00;;;;;14.01;100.00;100997.41;2073951;28;45147;-54
2023/11/08 02:54:40;;;;;;;;;8.50;6.75;;;;;14.01;100.00;100998.28;2065893;28;46142;-57
2023/11/08 02:55:41;;;;;;;;;7.67;6.33;;;;;14.02;100.00;100994.69;2082735;28;46835;-57
2023/11/08 02:56:41;;;;;;;;;5.67;5.33;;;;;14.03;100.00;100993.75;2071877;28;46624;-58
2023/11/08 02:57:42;;;;;;;;;6.67;6.67;;;;;14.03;100.00;100993.75;2086346;28;46716;-59
2023/11/08 02:58:42;;;;;;;;;5.67;5.67;;;;;14.04;100.00;100992.84;2080104;28;46076;-58
2023/11/08 02:59:43;;;;;;;;;8.67;7.00;;;;;14.06;100.00;100995.47;2072936;28;46272;-57
2023/11/08 03:00:43;;;;;;;;;7.00;6.00;;;;;14.07;100.00;101002.53;2080930;28;45525;-53
2023/11/08 03:01:44;;;;;;;;;7.67;7.67;;;;;14.07;100.00;101003.41;2068252;28;46508;-59
2023/11/08 03:02:44;;;;;;;;;6.33;6.00;;;;;14.09;100.00;100992.69;2078024;28;46341;-59
2023/11/08 03:03:44;;;;;;;;;6.25;5.00;;;;;14.06;100.00;100996.31;2079184;28;46667;-58
2023/11/08 03:04:44;;;;;;;;;6.00;6.00;;;;;14.04;100.00;100997.31;2068484;28;46671;-58
2023/11/08 03:05:45;;;;;;;;;6.33;5.00;;;;;14.04;100.00;100986.63;2064225;28;46747;-54
2023/11/08 03:06:46;;;;;;;;;8.50;7.50;;;;;14.03;100.00;100988.44;2104128;28;46512;-57
2023/11/08 03:07:48;;;;;;;;;5.00;5.00;;;;;14.05;100.00;100991.03;2083310;28;46860;-58
2023/11/08 03:08:49;;;;;;;;;5.25;5.25;;;;;14.06;100.00;100992.78;2065752;28;46395;-57
2023/11/08 03:09:49;;;;;;;;;9.00;9.00;;;;;14.05;100.00;100991.91;2092862;28;46732;-56
2023/11/08 03:10:50;;;;;;;;;6.67;6.33;;;;;14.05;100.00;100994.59;2083673;28;46493;-57
2023/11/08 03:11:51;;;;;;;;;5.00;5.00;;;;;14.05;100.00;100991.91;2082676;28;46439;-58
2023/11/08 03:12:52;;;;;;;;;8.00;5.00;;;;;14.05;100.00;100988.38;2057415;28;46355;-49
2023/11/08 03:13:53;;;;;;;;;5.50;5.50;;;;;14.04;100.00;100984.84;2066736;28;46421;-60
2023/11/08 03:14:53;;;;;;;;;6.00;6.00;;;;;14.08;100.00;100991.81;2055820;28;45637;-59
2023/11/08 03:15:54;;;;;;;;;7.00;6.00;;;;;14.08;100.00;100986.47;2059849;28;46686;-53
2023/11/08 03:16:54;;;;;;;;;4.33;4.33;;;;;14.09;100.00;100992.69;2049281;28;47364;-58
2023/11/08 03:17:55;;;;;;;;;6.67;6.67;;;;;14.10;100.00;100983.75;2064473;28;46599;-60
2023/11/08 03:18:57;;;;;;;;;6.00;6.00;;;;;14.10;100.00;100986.44;2058948;28;47100;-56
2023/11/08 03:19:57;;;;;;;;;6.75;5.75;;;;;14.11;100.00;100988.19;2065600;28;46346;-52
2023/11/08 03:20:57;;;;;;;;;7.67;5.67;;;;;14.11;100.00;100990.88;2063385;28;46738;-55
2023/11/08 03:22:00;;;;;;;;;4.67;4.67;;;;;14.12;100.00;100987.28;2075417;28;45821;-57
2023/11/08 03:23:00;;;;;;;;;5.75;5.75;;;;;14.12;100.00;100984.59;2052932;28;46284;-59
2023/11/08 03:24:00;;;;;;;;;5.00;4.00;;;;;14.12;100.00;100988.16;2061980;28;45305;-59
2023/11/08 03:25:04;;;;;;;;;6.33;6.33;;;;;14.12;100.00;100985.47;2065043;28;46429;-60
2023/11/08 03:26:05;;;;;;;;;6.00;6.00;;;;;14.12;100.00;100990.81;2085441;28;47329;-58
2023/11/08 03:27:05;;;;;;;;;5.00;5.00;;;;;14.11;100.00;100990.88;2070289;28;45875;-57
2023/11/08 03:28:06;;;;;;;;;6.00;6.00;;;;;14.10;100.00;100990.00;2086488;28;46548;-60
2023/11/08 03:29:06;;;;;;;;;6.00;6.00;;;;;14.10;100.00;100990.00;2081021;28;46388;-58
2023/11/08 03:30:08;;;;;;;;;3.33;3.33;;;;;14.11;100.00;100991.75;2081776;28;46256;-59
2023/11/08 03:31:08;;;;;;;;;5.75;5.75;;;;;14.12;100.00;100996.16;2095448;28;46293;-59
2023/11/08 03:32:09;;;;;;;;;3.33;3.33;;;;;14.12;100.00;100988.16;2063714;28;46493;-55
2023/11/08 03:33:09;;;;;;;;;7.33;7.33;;;;;14.12;100.00;100993.47;2055611;28;46330;-58
2023/11/08 03:34:10;;;;;;;;;5.00;5.00;;;;;14.13;100.00;100997.03;2066789;28;45964;-55
2023/11/08 03:35:12;;;;;;;;;4.75;4.75;;;;;14.14;100.00;100991.63;2065432;28;46323;-60
2023/11/08 03:36:13;;;;;;;;;6.50;5.00;;;;;14.13;100.00;100992.56;2096292;28;46568;-59
2023/11/08 03:37:13;;;;;;;;;6.33;6.33;;;;;14.13;100.00;100989.88;2084066;28;45049;-58
2023/11/08 03:38:13;;;;;;;;;8.33;6.00;;;;;14.13;100.00;100989.03;2076996;28;46382;-60
2023/11/08 03:39:14;;;;;;;;;5.00;5.00;;;;;14.11;100.00;100988.19;2086947;28;45937;-54
2023/11/08 03:40:15;;;;;;;;;7.00;6.33;;;;;14.10;100.00;100997.09;2071916;28;46483;-58
2023/11/08 03:41:15;;;;;;;;;5.75;5.25;;;;;14.09;100.00;100992.69;2091241;28;46447;-60
2023/11/08 03:42:16;;;;;;;;;6.00;5.67;;;;;14.09;100.00;100992.69;2088281;28;46132;-60
2023/11/08 03:43:18;;;;;;;;;7.00;6.00;;;;;14.08;100.00;100991.81;2069297;28;46201;-55
2023/11/08 03:44:18;;;;;;;;;6.00;6.00;;;;;14.08;100.00;100994.47;2098694;28;46596;-53
2023/11/08 03:45:18;;;;;;;;;7.00;7.00;;;;;14.06;100.00;100982.13;2088202;28;46625;-58
2023/11/08 03:46:19;;;;;;;;;5.67;5.33;;;;;14.07;100.00;100983.84;2088382;28;46782;-58
2023/11/08 03:47:20;;;;;;;;;5.00;5.00;;;;;14.07;100.00;100984.72;2106255;27;46301;-57
2023/11/08 03:48:20;;;;;;;;;6.33;5.00;;;;;14.07;100.00;100989.19;2078205;28;46336;-57
2023/11/08 03:49:21;;;;;;;;;5.00;5.00;;;;;14.07;100.00;100987.41;2063116;28;45982;-58
2023/11/08 03:50:21;;;;;;;;;4.00;4.00;;;;;14.07;100.00;100991.88;2081611;27;46266;-61
2023/11/08 03:51:22;;;;;;;;;4.33;4.33;;;;;14.07;100.00;100983.84;2074482;28;46562;-58
2023/11/08 03:52:23;;;;;;;;;5.33;5.33;;;;;14.07;100.00;100990.06;2060218;28;46845;-56
2023/11/08 03:53:26;;;;;;;;;6.00;4.00;;;;;14.09;100.00;100985.56;2090473;28;46068;-60
2023/11/08 03:54:27;;;;;;;;;5.50;5.50;;;;;14.08;100.00;100985.59;2065816;28;46270;-54
2023/11/08 03:55:27;;;;;;;;;7.67;7.67;;;;;14.08;100.00;100985.59;2094751;28;46549;-56
2023/11/08 03:56:30;;;;;;;;;7.00;7.00;;;;;14.06;100.00;100991.00;2069370;28;46503;-58
2023/11/08 03:57:30;;;;;;;;;5.00;5.00;;;;;14.05;100.00;100986.59;2063279;28;46759;-58
2023/11/08 03:58:30;;;;;;;;;4.33;4.33;;;;;14.06;100.00;100992.78;2091782;28;46516;-59
2023/11/08 03:59:30;;;;;;;;;5.67;5.33;;;;;14.06;100.00;100992.78;2077477;28;46294;-57
2023/11/08 04:00:31;;;;;;;;;7.00;5.67;;;;;14.06;100.00;100993.66;2086865;28;46267;-57
2023/11/08 04:01:31;;;;;;;;;4.00;4.00;;;;;14.05;100.00;100985.72;2091069;28;46774;-58
2023/11/08 04:02:32;;;;;;;;;4.67;4.67;;;;;14.03;100.00;100999.09;2072767;28;46587;-59
2023/11/08 04:03:32;;;;;;;;;5.67;5.00;;;;;14.02;100.00;100994.69;2093298;28;47313;-60
2023/11/08 04:04:32;;;;;;;;;5.33;5.00;;;;;14.03;100.00;100985.75;2062493;28;46822;-58
2023/11/08 04:05:33;;;;;;;;;7.00;7.00;;;;;14.03;100.00;100990.22;2084054;28;45784;-54
2023/11/08 04:06:33;;;;;;;;;6.00;4.00;;;;;14.02;100.00;100978.69;2087507;28;46275;-58
2023/11/08 04:07:33;;;;;;;;;5.67;5.67;;;;;14.04;100.00;100989.31;2099882;28;46597;-58
2023/11/08 04:08:34;;;;;;;;;6.00;5.00;;;;;14.02;100.00;100986.69;2099996;28;46336;-59
2023/11/08 04:09:34;;;;;;;;;4.33;4.33;;;;;14.02;100.00;100989.34;2106033;28;46314;-58
2023/11/08 04:10:36;;;;;;;;;6.33;5.67;;;;;14.02;100.00;100993.81;2076926;28;46694;-58
2023/11/08 04:11:37;;;;;;;;;5.00;5.00;;;;;13.99;100.00;100989.47;2065392;28;46475;-57
2023/11/08 04:12:37;;;;;;;;;6.33;5.33;;;;;14.00;100.00;100996.53;2105443;28;46389;-55
2023/11/08 04:13:38;;;;;;;;;5.67;4.33;;;;;14.00;100.00;100987.66;2073967;27;47238;-59
2023/11/08 04:14:38;;;;;;;;;7.00;5.67;;;;;14.00;100.00;100993.88;2057433;28;45751;-59
2023/11/08 04:15:39;;;;;;;;;5.33;5.33;;;;;14.00;100.00;100991.19;2099543;28;45845;-60
2023/11/08 04:16:39;;;;;;;;;5.00;5.00;;;;;14.03;100.00;100999.09;2094434;28;46503;-60
2023/11/08 04:17:40;;;;;;;;;4.00;3.00;;;;;14.02;100.00;100996.50;2106040;28;46188;-58
2023/11/08 04:18:40;;;;;;;;;4.00;4.00;;;;;14.02;100.00;100993.81;2099023;28;46454;-56
2023/11/08 04:19:41;;;;;;;;;8.67;7.00;;;;;14.01;100.00;101000.06;2069928;28;46376;-59
2023/11/08 04:20:42;;;;;;;;;6.00;5.33;;;;;14.00;100.00;100996.53;2104473;28;46249;-57
2023/11/08 04:21:44;;;;;;;;;4.25;4.25;;;;;14.00;100.00;101001.00;2064369;28;46324;-57
2023/11/08 04:22:44;;;;;;;;;5.00;5.00;;;;;14.00;100.00;100990.34;2062938;28;47043;-61
2023/11/08 04:23:45;;;;;;;;;6.00;6.00;;;;;13.99;100.00;100996.59;2074375;28;46013;-60
2023/11/08 04:24:45;;;;;;;;;3.67;3.67;;;;;13.98;100.00;100992.19;2067372;28;46406;-58
2023/11/08 04:25:49;;;;;;;;;5.00;5.00;;;;;13.96;100.00;100991.31;2063604;28;46170;-54
2023/11/08 04:26:49;;;;;;;;;4.50;4.25;;;;;13.96;100.00;100992.19;2094510;28;46899;-60
2023/11/08 04:27:50;;;;;;;;;5.00;5.00;;;;;13.98;100.00;100993.06;2082992;28;46395;-57
2023/11/08 04:28:51;;;;;;;;;5.33;5.33;;;;;13.98;100.00;100987.72;2091380;28;46260;-57
2023/11/08 04:29:51;;;;;;;;;5.00;5.00;;;;;13.99;100.00;100996.59;2073600;28;46443;-54
2023/11/08 04:30:51;;;;;;;;;5.33;5.33;;;;;14.00;100.00;100991.19;2057109;28;46291;-58
2023/11/08 04:31:52;;;;;;;;;5.00;5.00;;;;;14.00;100.00;100987.66;2097150;28;46898;-57
2023/11/08 04:32:52;;;;;;;;;7.00;5.33;;;;;14.01;100.00;100992.06;2085054;28;46841;-58
2023/11/08 04:33:53;;;;;;;;;7.00;6.25;;;;;14.01;100.00;100984.06;2062789;28;46354;-57
2023/11/08 04:34:53;;;;;;;;;5.75;5.75;;;;;14.01;100.00;100984.94;2069283;28;46692;-57
2023/11/08 04:35:54;;;;;;;;;5.33;5.33;;;;;14.02;100.00;100981.34;2072115;28;47141;-57
2023/11/08 04:36:54;;;;;;;;;4.33;3.00;;;;;14.02;100.00;100985.81;2071302;28;47041;-55
2023/11/08 04:37:54;;;;;;;;;5.33;4.33;;;;;14.02;100.00;100983.16;2071861;28;46683;-56
2023/11/08 04:38:54;;;;;;;;;6.00;6.00;;;;;14.01;100.00;100979.59;2069155;28;46739;-55
2023/11/08 04:39:55;;;;;;;;;10.00;6.33;;;;;14.00;100.00;100980.53;2067411;28;46374;-61